Ash Lake, Minnesota
Current Conditions -  °F | °C
As of 10:13 PM on Monday 22 Dec 2014 (Local Time) from KORB Reporting Station
Haze Haze  
Wind Chill: 34°   Ceiling: 500
Heat Index: 34°   Visibility: 5mi
Dew Point: 30°   Wind: 0mph
Humidity: 87%   Direction: NA
Pressure: 29.72"   Gusts: NA
Location:  48.1455°N, 92.8504°W
Report Text: KORB 230413Z AUTO 00000KT 5SM BR OVC005 01/M01 A2972 RMK AO2
Loading
Personal Weather Stations






























Interactive Weather Map New forecast layout! Learn more

10-Day Weather Forecast

Advertisements
Track Severe Weather on mobile